sensor_id;sensor_type;location;lat;lon;timestamp;pressure;altitude;pressure_sealevel;temperature;humidity
5350;BME280;2697;42.144;24.794;2023-02-17T00:00:10;153118.16;;;2.14;100.00
5350;BME280;2697;42.144;24.794;2023-02-17T00:02:36;153099.88;;;2.07;100.00
5350;BME280;2697;42.144;24.794;2023-02-17T00:05:04;153097.28;;;2.06;100.00
5350;BME280;2697;42.144;24.794;2023-02-17T00:07:31;153092.00;;;2.04;100.00
5350;BME280;2697;42.144;24.794;2023-02-17T00:09:57;153102.50;;;2.08;100.00
5350;BME280;2697;42.144;24.794;2023-02-17T00:12:23;153097.28;;;2.06;100.00
5350;BME280;2697;42.144;24.794;2023-02-17T00:14:48;153028.00;;;1.79;100.00
5350;BME280;2697;42.144;24.794;2023-02-17T00:17:14;153005.78;;;1.70;100.00
5350;BME280;2697;42.144;24.794;2023-02-17T00:19:39;152949.53;;;1.48;100.00
5350;BME280;2697;42.144;24.794;2023-02-17T00:22:05;152889.47;;;1.25;100.00
5350;BME280;2697;42.144;24.794;2023-02-17T00:24:31;152859.44;;;1.13;100.00
5350;BME280;2697;42.144;24.794;2023-02-17T00:26:57;152804.53;;;0.92;100.00
5350;BME280;2697;42.144;24.794;2023-02-17T00:29:22;152799.31;;;0.90;100.00
5350;BME280;2697;42.144;24.794;2023-02-17T00:31:48;152773.22;;;0.79;100.00
5350;BME280;2697;42.144;24.794;2023-02-17T00:34:15;152722.28;;;0.60;100.00
5350;BME280;2697;42.144;24.794;2023-02-17T00:36:41;152762.78;;;0.75;100.00
5350;BME280;2697;42.144;24.794;2023-02-17T00:39:07;152749.72;;;0.70;100.00
5350;BME280;2697;42.144;24.794;2023-02-17T00:41:32;152770.59;;;0.78;100.00
5350;BME280;2697;42.144;24.794;2023-02-17T00:43:58;152773.22;;;0.79;100.00
5350;BME280;2697;42.144;24.794;2023-02-17T00:46:24;152781.03;;;0.82;100.00
5350;BME280;2697;42.144;24.794;2023-02-17T00:48:49;152841.13;;;1.06;100.00
5350;BME280;2697;42.144;24.794;2023-02-17T00:51:15;152794.13;;;0.88;100.00
5350;BME280;2697;42.144;24.794;2023-02-17T00:53:42;152728.81;;;0.62;100.00
5350;BME280;2697;42.144;24.794;2023-02-17T00:56:07;152684.41;;;0.45;100.00
5350;BME280;2697;42.144;24.794;2023-02-17T00:58:33;152697.50;;;0.50;100.00
5350;BME280;2697;42.144;24.794;2023-02-17T01:00:59;152684.41;;;0.45;100.00
5350;BME280;2697;42.144;24.794;2023-02-17T01:03:25;152660.91;;;0.36;100.00
5350;BME280;2697;42.144;24.794;2023-02-17T01:05:51;152637.41;;;0.26;100.00
5350;BME280;2697;42.144;24.794;2023-02-17T01:08:17;152663.50;;;0.37;100.00
5350;BME280;2697;42.144;24.794;2023-02-17T01:10:47;152606.09;;;0.14;100.00
5350;BME280;2697;42.144;24.794;2023-02-17T01:13:14;152499.13;;;-0.27;100.00
5350;BME280;2697;42.144;24.794;2023-02-17T01:15:43;152459.97;;;-0.43;100.00
5350;BME280;2697;42.144;24.794;2023-02-17T01:18:09;152381.72;;;-0.73;100.00
5350;BME280;2697;42.144;24.794;2023-02-17T01:20:36;152362.16;;;-0.81;100.00
5350;BME280;2697;42.144;24.794;2023-02-17T01:23:01;152373.88;;;-0.76;100.00
5350;BME280;2697;42.144;24.794;2023-02-17T01:25:27;152418.22;;;-0.59;100.00
5350;BME280;2697;42.144;24.794;2023-02-17T01:27:52;152429.97;;;-0.54;100.00
5350;BME280;2697;42.144;24.794;2023-02-17T01:30:18;152390.84;;;-0.70;100.00
5350;BME280;2697;42.144;24.794;2023-02-17T01:32:43;152355.66;;;-0.83;100.00
5350;BME280;2697;42.144;24.794;2023-02-17T01:35:09;152396.03;;;-0.68;100.00
5350;BME280;2697;42.144;24.794;2023-02-17T01:37:34;152431.28;;;-0.54;100.00
5350;BME280;2697;42.144;24.794;2023-02-17T01:39:59;152449.50;;;-0.47;100.00
5350;BME280;2697;42.144;24.794;2023-02-17T01:42:25;152383.03;;;-0.73;100.00
5350;BME280;2697;42.144;24.794;2023-02-17T01:50:12;152358.25;;;-0.82;100.00
5350;BME280;2697;42.144;24.794;2023-02-17T01:52:38;152319.13;;;-0.98;100.00
5350;BME280;2697;42.144;24.794;2023-02-17T01:55:07;152287.84;;;-1.10;100.00
5350;BME280;2697;42.144;24.794;2023-02-17T01:57:36;152266.97;;;-1.18;100.00
5350;BME280;2697;42.144;24.794;2023-02-17T02:00:04;152231.75;;;-1.32;100.00
5350;BME280;2697;42.144;24.794;2023-02-17T02:02:30;152212.25;;;-1.39;100.00
5350;BME280;2697;42.144;24.794;2023-02-17T02:04:56;137875.25;;;-1.44;100.00
5350;BME280;2697;42.144;24.794;2023-02-17T02:07:29;113467.13;;;-1.24;100.00
5350;BME280;2697;42.144;24.794;2023-02-17T02:09:56;104347.31;;;-1.16;100.00
5350;BME280;2697;42.144;24.794;2023-02-17T02:12:25;101979.88;;;-1.18;100.00
5350;BME280;2697;42.144;24.794;2023-02-17T02:14:52;91869.41;;;-1.12;100.00
5350;BME280;2697;42.144;24.794;2023-02-17T02:35:56;73062.66;;;-0.99;100.00
5350;BME280;2697;42.144;24.794;2023-02-17T02:41:22;69013.78;;;-1.21;100.00
5350;BME280;2697;42.144;24.794;2023-02-17T02:43:50;68018.34;;;-1.13;100.00
5350;BME280;2697;42.144;24.794;2023-02-17T02:46:16;69354.69;;;-1.16;100.00
5350;BME280;2697;42.144;24.794;2023-02-17T02:48:42;66339.63;;;-1.17;100.00
5350;BME280;2697;42.144;24.794;2023-02-17T02:52:04;63983.97;;;-1.29;100.00
5350;BME280;2697;42.144;24.794;2023-02-17T02:54:27;60619.31;;;-1.50;100.00
5350;BME280;2697;42.144;24.794;2023-02-17T03:02:50;49931.00;;;-1.64;100.00
5350;BME280;2697;42.144;24.794;2023-02-17T03:10:19;42296.56;;;-1.37;100.00
5350;BME280;2697;42.144;24.794;2023-02-17T03:12:45;37998.16;;;-1.01;100.00
5350;BME280;2697;42.144;24.794;2023-02-17T03:15:15;36024.13;;;-0.68;100.00
5350;BME280;2697;42.144;24.794;2023-02-17T03:17:43;40024.63;;;-0.54;100.00
5350;BME280;2697;42.144;24.794;2023-02-17T03:20:09;44668.81;;;-0.79;100.00
5350;BME280;2697;42.144;24.794;2023-02-17T03:22:37;47663.19;;;-0.86;100.00
5350;BME280;2697;42.144;24.794;2023-02-17T03:25:05;47655.03;;;-0.96;100.00
5350;BME280;2697;42.144;24.794;2023-02-17T03:27:31;47998.63;;;-0.83;100.00
5350;BME280;2697;42.144;24.794;2023-02-17T03:29:56;53031.19;;;-0.51;100.00
5350;BME280;2697;42.144;24.794;2023-02-17T03:32:22;62731.94;;;-0.48;100.00
5350;BME280;2697;42.144;24.794;2023-02-17T03:34:47;66762.69;;;-0.38;100.00
5350;BME280;2697;42.144;24.794;2023-02-17T03:37:12;70440.94;;;-0.47;100.00
5350;BME280;2697;42.144;24.794;2023-02-17T03:39:38;67754.00;;;-0.51;100.00
5350;BME280;2697;42.144;24.794;2023-02-17T03:42:03;65729.69;;;-0.63;100.00
5350;BME280;2697;42.144;24.794;2023-02-17T03:44:29;63689.22;;;-0.92;100.00
5350;BME280;2697;42.144;24.794;2023-02-17T03:46:54;58305.81;;;-1.25;100.00
5350;BME280;2697;42.144;24.794;2023-02-17T03:49:19;55977.91;;;-1.15;100.00
5350;BME280;2697;42.144;24.794;2023-02-17T03:51:45;61311.13;;;-1.27;100.00
5350;BME280;2697;42.144;24.794;2023-02-17T03:54:10;64640.84;;;-1.40;100.00
5350;BME280;2697;42.144;24.794;2023-02-17T03:56:36;58964.84;;;-1.34;100.00
5350;BME280;2697;42.144;24.794;2023-02-17T03:59:02;52318.50;;;-1.02;100.00
5350;BME280;2697;42.144;24.794;2023-02-17T04:01:28;47673.00;;;-0.73;100.00
5350;BME280;2697;42.144;24.794;2023-02-17T04:03:53;49010.25;;;-0.69;100.00
5350;BME280;2697;42.144;24.794;2023-02-17T04:06:19;52666.56;;;-0.86;100.00
5350;BME280;2697;42.144;24.794;2023-02-17T04:08:44;52992.19;;;-0.95;100.00
5350;BME280;2697;42.144;24.794;2023-02-17T04:11:10;50986.72;;;-0.99;100.00
5350;BME280;2697;42.144;24.794;2023-02-17T04:13:36;51655.66;;;-0.97;100.00
5350;BME280;2697;42.144;24.794;2023-02-17T04:16:03;55324.38;;;-1.00;100.00
5350;BME280;2697;42.144;24.794;2023-02-17T04:18:30;54991.41;;;-0.99;100.00
5350;BME280;2697;42.144;24.794;2023-02-17T04:20:55;55320.59;;;-1.04;100.00
5350;BME280;2697;42.144;24.794;2023-02-17T04:23:22;54971.66;;;-1.20;100.00
5350;BME280;2697;42.144;24.794;2023-02-17T04:25:48;54953.81;;;-1.39;100.00
5350;BME280;2697;42.144;24.794;2023-02-17T04:28:15;55603.09;;;-1.59;100.00
5350;BME280;2697;42.144;24.794;2023-02-17T04:30:46;54927.47;;;-1.68;100.00
5350;BME280;2697;42.144;24.794;2023-02-17T04:33:12;51927.47;;;-1.67;100.00
5350;BME280;2697;42.144;24.794;2023-02-17T04:35:38;50260.22;;;-1.69;100.00
5350;BME280;2697;42.144;24.794;2023-02-17T04:38:04;47948.47;;;-1.45;100.00
5350;BME280;2697;42.144;24.794;2023-02-17T04:40:30;53599.16;;;-1.62;100.00
5350;BME280;2697;42.144;24.794;2023-02-17T04:42:55;57266.63;;;-1.64;100.00
5350;BME280;2697;42.144;24.794;2023-02-17T04:45:21;53259.38;;;-1.69;100.00
5350;BME280;2697;42.144;24.794;2023-02-17T04:47:46;50249.47;;;-1.82;100.00
5350;BME280;2697;42.144;24.794;2023-02-17T04:50:12;46910.44;;;-1.94;100.00
5350;BME280;2697;42.144;24.794;2023-02-17T04:52:37;45236.09;;;-2.09;100.00
5350;BME280;2697;42.144;24.794;2023-02-17T04:55:04;42911.34;;;-2.07;100.00
5350;BME280;2697;42.144;24.794;2023-02-17T04:57:29;43581.94;;;-1.98;100.00
5350;BME280;2697;42.144;24.794;2023-02-17T04:59:55;44567.00;;;-2.15;100.00
5350;BME280;2697;42.144;24.794;2023-02-17T05:02:20;39916.75;;;-2.14;100.00
5350;BME280;2697;42.144;24.794;2023-02-17T05:04:46;37582.84;;;-2.31;100.00
5350;BME280;2697;42.144;24.794;2023-02-17T05:07:11;32948.59;;;-2.19;100.00
5350;BME280;2697;42.144;24.794;2023-02-17T05:09:37;32609.34;;;-2.33;100.00
5350;BME280;2697;42.144;24.794;2023-02-17T05:12:02;33281.97;;;-2.15;100.00
5350;BME280;2697;42.144;24.794;2023-02-17T05:14:29;36577.16;;;-2.48;100.00
5350;BME280;2697;42.144;24.794;2023-02-17T05:16:55;33595.75;;;-2.46;100.00
5350;BME280;2697;42.144;24.794;2023-02-17T05:19:20;31276.38;;;-2.48;100.00
5350;BME280;2697;42.144;24.794;2023-02-17T05:21:45;29614.69;;;-2.62;100.00
5350;BME280;2697;42.144;24.794;2023-02-17T05:24:11;24986.22;;;-2.60;100.00
5350;BME280;2697;42.144;24.794;2023-02-17T05:26:36;20371.84;;;-2.32;100.00
5350;BME280;2697;42.144;24.794;2023-02-17T05:29:02;16753.94;;;-1.87;100.00
5350;BME280;2697;42.144;24.794;2023-02-17T05:31:27;13463.72;;;-1.45;100.00
5350;BME280;2697;42.144;24.794;2023-02-17T05:33:53;11820.16;;;-1.12;100.00
5350;BME280;2697;42.144;24.794;2023-02-17T05:36:19;8529.88;;;-0.49;100.00
5350;BME280;2697;42.144;24.794;2023-02-17T05:38:44;7880.13;;;0.24;100.00
5350;BME280;2697;42.144;24.794;2023-02-17T05:41:14;13514.63;;;0.70;100.00
5350;BME280;2697;42.144;24.794;2023-02-17T05:43:39;27488.41;;;1.43;100.00
5350;BME280;2697;42.144;24.794;2023-02-17T05:46:05;61607.13;;;1.60;100.00
5350;BME280;2697;42.144;24.794;2023-02-17T05:48:30;104146.47;;;1.57;100.00
5350;BME280;2697;42.144;24.794;2023-02-17T05:50:56;153073.75;;;1.96;100.00
5350;BME280;2697;42.144;24.794;2023-02-17T05:53:22;153064.56;;;1.93;100.00
5350;BME280;2697;42.144;24.794;2023-02-17T05:55:47;153026.69;;;1.78;100.00
5350;BME280;2697;42.144;24.794;2023-02-17T05:58:12;153050.22;;;1.87;100.00
5350;BME280;2697;42.144;24.794;2023-02-17T06:00:38;153004.47;;;1.69;100.00
5350;BME280;2697;42.144;24.794;2023-02-17T06:03:03;152937.81;;;1.43;100.00
5350;BME280;2697;42.144;24.794;2023-02-17T06:05:29;152940.41;;;1.45;100.00
5350;BME280;2697;42.144;24.794;2023-02-17T06:07:54;152918.19;;;1.36;100.00
5350;BME280;2697;42.144;24.794;2023-02-17T06:10:20;152966.56;;;1.55;100.00
5350;BME280;2697;42.144;24.794;2023-02-17T06:12:45;152922.13;;;1.37;100.00
5350;BME280;2697;42.144;24.794;2023-02-17T06:15:10;152987.47;;;1.63;100.00
5350;BME280;2697;42.144;24.794;2023-02-17T06:17:36;153038.44;;;1.83;100.00
5350;BME280;2697;42.144;24.794;2023-02-17T06:20:02;152935.22;;;1.42;100.00
5350;BME280;2697;42.144;24.794;2023-02-17T06:22:28;152894.69;;;1.27;100.00
5350;BME280;2697;42.144;24.794;2023-02-17T06:24:53;152922.13;;;1.37;100.00
5350;BME280;2697;42.144;24.794;2023-02-17T06:27:18;152795.41;;;0.88;100.00
5350;BME280;2697;42.144;24.794;2023-02-17T06:29:44;152828.06;;;1.01;100.00
5350;BME280;2697;42.144;24.794;2023-02-17T06:32:09;152799.31;;;0.90;100.00
5350;BME280;2697;42.144;24.794;2023-02-17T06:34:35;152782.34;;;0.83;100.00
5350;BME280;2697;42.144;24.794;2023-02-17T06:37:00;152848.97;;;1.09;100.00
5350;BME280;2697;42.144;24.794;2023-02-17T06:39:25;152816.31;;;0.96;100.00
5350;BME280;2697;42.144;24.794;2023-02-17T06:41:51;152687.00;;;0.46;100.00
5350;BME280;2697;42.144;24.794;2023-02-17T06:44:16;152752.31;;;0.71;100.00
5350;BME280;2697;42.144;24.794;2023-02-17T06:46:42;152859.44;;;1.13;100.00
5350;BME280;2697;42.144;24.794;2023-02-17T06:49:10;152707.91;;;0.54;100.00
5350;BME280;2697;42.144;24.794;2023-02-17T06:51:35;152676.59;;;0.42;100.00
5350;BME280;2697;42.144;24.794;2023-02-17T06:54:01;152787.59;;;0.85;100.00
5350;BME280;2697;42.144;24.794;2023-02-17T06:56:26;152731.41;;;0.63;100.00
5350;BME280;2697;42.144;24.794;2023-02-17T06:58:52;152723.59;;;0.60;100.00
5350;BME280;2697;42.144;24.794;2023-02-17T07:01:20;152734.03;;;0.64;100.00
5350;BME280;2697;42.144;24.794;2023-02-17T07:03:46;152786.28;;;0.84;100.00
5350;BME280;2697;42.144;24.794;2023-02-17T07:06:12;152820.22;;;0.98;100.00
5350;BME280;2697;42.144;24.794;2023-02-17T07:08:37;152872.47;;;1.18;100.00
5350;BME280;2697;42.144;24.794;2023-02-17T07:11:08;152914.28;;;1.34;100.00
5350;BME280;2697;42.144;24.794;2023-02-17T07:13:34;152960.03;;;1.52;100.00
5350;BME280;2697;42.144;24.794;2023-02-17T07:15:59;152963.94;;;1.54;100.00
5350;BME280;2697;42.144;24.794;2023-02-17T07:18:24;153094.63;;;2.05;100.00
5350;BME280;2697;42.144;24.794;2023-02-17T07:20:50;153162.63;;;2.31;100.00
5350;BME280;2697;42.144;24.794;2023-02-17T07:23:15;153183.56;;;2.39;100.00
5350;BME280;2697;42.144;24.794;2023-02-17T07:25:42;153126.03;;;2.17;100.00
5350;BME280;2697;42.144;24.794;2023-02-17T07:28:08;153216.28;;;2.52;100.00
5350;BME280;2697;42.144;24.794;2023-02-17T07:30:37;153262.00;;;2.70;100.00
5350;BME280;2697;42.144;24.794;2023-02-17T07:33:03;153374.53;;;3.13;100.00
5350;BME280;2697;42.144;24.794;2023-02-17T07:35:29;153317.00;;;2.91;100.00
5350;BME280;2697;42.144;24.794;2023-02-17T07:37:56;153411.22;;;3.28;100.00
5350;BME280;2697;42.144;24.794;2023-02-17T07:40:22;153487.13;;;3.57;100.00
5350;BME280;2697;42.144;24.794;2023-02-17T07:42:47;153515.91;;;3.68;100.00
5350;BME280;2697;42.144;24.794;2023-02-17T07:45:12;153523.75;;;3.71;100.00
5350;BME280;2697;42.144;24.794;2023-02-17T07:47:38;153581.41;;;3.94;100.00
5350;BME280;2697;42.144;24.794;2023-02-17T07:50:04;153623.31;;;4.10;100.00
5350;BME280;2697;42.144;24.794;2023-02-17T07:52:30;153604.97;;;4.03;100.00
5350;BME280;2697;42.144;24.794;2023-02-17T07:54:55;153639.00;;;4.16;100.00
5350;BME280;2697;42.144;24.794;2023-02-17T07:57:20;153618.03;;;4.08;100.00
5350;BME280;2697;42.144;24.794;2023-02-17T07:59:46;153692.69;;;4.37;100.00
5350;BME280;2697;42.144;24.794;2023-02-17T08:02:12;153611.50;;;4.06;100.00
5350;BME280;2697;42.144;24.794;2023-02-17T08:04:38;153535.56;;;3.76;100.00
5350;BME280;2697;42.144;24.794;2023-02-17T08:07:03;153556.53;;;3.84;100.00
5350;BME280;2697;42.144;24.794;2023-02-17T08:09:28;153607.59;;;4.04;100.00
5350;BME280;2697;42.144;24.794;2023-02-17T08:12:18;153662.56;;;4.25;100.00
5350;BME280;2697;42.144;24.794;2023-02-17T08:15:05;153716.28;;;4.46;100.00
5350;BME280;2697;42.144;24.794;2023-02-17T08:17:31;153718.94;;;4.47;100.00
5350;BME280;2697;42.144;24.794;2023-02-17T08:19:57;153784.41;;;4.73;100.00
5350;BME280;2697;42.144;24.794;2023-02-17T08:22:22;153856.50;;;5.01;100.00
5350;BME280;2697;42.144;24.794;2023-02-17T08:24:48;153864.41;;;5.04;100.00
5350;BME280;2697;42.144;24.794;2023-02-17T08:27:14;153843.41;;;4.96;100.00
5350;BME280;2697;42.144;24.794;2023-02-17T08:29:40;153835.53;;;4.93;100.00
5350;BME280;2697;42.144;24.794;2023-02-17T08:32:06;153873.56;;;5.07;100.00
5350;BME280;2697;42.144;24.794;2023-02-17T08:34:31;153914.22;;;5.23;100.00
5350;BME280;2697;42.144;24.794;2023-02-17T08:37:04;154015.16;;;5.62;100.00
5350;BME280;2697;42.144;24.794;2023-02-17T08:39:31;154011.22;;;5.61;100.00
5350;BME280;2697;42.144;24.794;2023-02-17T08:41:56;154053.22;;;5.77;100.00
5350;BME280;2697;42.144;24.794;2023-02-17T08:44:22;154101.78;;;5.96;100.00
5350;BME280;2697;42.144;24.794;2023-02-17T08:46:48;154126.72;;;6.06;100.00
5350;BME280;2697;42.144;24.794;2023-02-17T08:49:16;154181.81;;;6.27;100.00
5350;BME280;2697;42.144;24.794;2023-02-17T08:51:42;154221.19;;;6.42;100.00
5350;BME280;2697;42.144;24.794;2023-02-17T08:54:08;154318.31;;;6.80;100.00
5350;BME280;2697;42.144;24.794;2023-02-17T08:56:35;154357.66;;;6.95;100.00
5350;BME280;2697;42.144;24.794;2023-02-17T08:59:01;154373.44;;;7.01;100.00
5350;BME280;2697;42.144;24.794;2023-02-17T09:01:27;154391.81;;;7.08;100.00
5350;BME280;2697;42.144;24.794;2023-02-17T09:03:53;154440.41;;;7.27;97.61
5350;BME280;2697;42.144;24.794;2023-02-17T09:06:20;154534.97;;;7.64;95.81
5350;BME280;2697;42.144;24.794;2023-02-17T09:08:46;154632.19;;;8.02;91.00
5350;BME280;2697;42.144;24.794;2023-02-17T09:11:13;154657.16;;;8.11;91.28
5350;BME280;2697;42.144;24.794;2023-02-17T09:13:42;154718.97;;;8.35;90.88
5350;BME280;2697;42.144;24.794;2023-02-17T09:16:07;154747.88;;;8.46;87.22
5350;BME280;2697;42.144;24.794;2023-02-17T09:18:33;154784.69;;;8.61;84.30
5350;BME280;2697;42.144;24.794;2023-02-17T09:20:58;154851.75;;;8.87;81.96
5350;BME280;2697;42.144;24.794;2023-02-17T09:23:28;154888.56;;;9.01;79.91
5350;BME280;2697;42.144;24.794;2023-02-17T09:26:05;154968.81;;;9.32;78.43
5350;BME280;2697;42.144;24.794;2023-02-17T09:28:32;154999.06;;;9.43;78.31
5350;BME280;2697;42.144;24.794;2023-02-17T09:30:57;155041.19;;;9.60;74.51
5350;BME280;2697;42.144;24.794;2023-02-17T09:33:23;155106.94;;;9.85;76.14
5350;BME280;2697;42.144;24.794;2023-02-17T09:35:49;155168.81;;;10.09;72.87
5350;BME280;2697;42.144;24.794;2023-02-17T09:38:15;155212.31;;;10.26;70.21
5350;BME280;2697;42.144;24.794;2023-02-17T09:40:48;155293.91;;;10.57;66.35
5350;BME280;2697;42.144;24.794;2023-02-17T09:43:24;155391.38;;;10.95;65.01
5350;BME280;2697;42.144;24.794;2023-02-17T09:45:54;155499.44;;;11.37;60.21
5350;BME280;2697;42.144;24.794;2023-02-17T09:48:23;155670.81;;;12.03;52.76
5350;BME280;2697;42.144;24.794;2023-02-17T09:50:54;155818.47;;;12.60;48.88
5350;BME280;2697;42.144;24.794;2023-02-17T09:53:49;155971.53;;;13.19;45.06
5350;BME280;2697;42.144;24.794;2023-02-17T09:56:16;156108.81;;;13.72;42.46
5350;BME280;2697;42.144;24.794;2023-02-17T09:58:53;156206.50;;;14.10;41.46
5350;BME280;2697;42.144;24.794;2023-02-17T10:01:23;156283.06;;;14.39;39.77
5350;BME280;2697;42.144;24.794;2023-02-17T10:03:54;156354.44;;;14.67;39.91
5350;BME280;2697;42.144;24.794;2023-02-17T10:06:30;156441.66;;;15.00;37.27
5350;BME280;2697;42.144;24.794;2023-02-17T10:11:47;156544.72;;;15.40;36.50
5350;BME280;2697;42.144;24.794;2023-02-17T10:14:20;156587.03;;;15.56;37.13
5350;BME280;2697;42.144;24.794;2023-02-17T10:16:59;156628.03;;;15.72;36.01
5350;BME280;2697;42.144;24.794;2023-02-17T10:19:29;156659.78;;;15.84;35.75
5350;BME280;2697;42.144;24.794;2023-02-17T10:22:07;156692.84;;;15.97;34.92
5350;BME280;2697;42.144;24.794;2023-02-17T10:24:35;156737.78;;;16.14;35.56
5350;BME280;2697;42.144;24.794;2023-02-17T10:32:26;156822.41;;;16.47;32.89
5350;BME280;2697;42.144;24.794;2023-02-17T10:39:56;156897.91;;;16.76;32.67
5350;BME280;2697;42.144;24.794;2023-02-17T10:42:28;156893.91;;;16.74;32.22
5350;BME280;2697;42.144;24.794;2023-02-17T10:47:43;156909.81;;;16.80;31.75
5350;BME280;2697;42.144;24.794;2023-02-17T10:50:20;156961.41;;;17.00;31.75
5350;BME280;2697;42.144;24.794;2023-02-17T10:52:47;156999.78;;;17.15;31.90
5350;BME280;2697;42.144;24.794;2023-02-17T10:55:38;157013.00;;;17.20;30.86
5350;BME280;2697;42.144;24.794;2023-02-17T10:58:19;157060.66;;;17.38;31.06
5350;BME280;2697;42.144;24.794;2023-02-17T11:00:51;157063.28;;;17.39;30.87
5350;BME280;2697;42.144;24.794;2023-02-17T11:03:27;157088.44;;;17.49;30.72
5350;BME280;2697;42.144;24.794;2023-02-17T11:05:55;157103.03;;;17.55;29.82
5350;BME280;2697;42.144;24.794;2023-02-17T11:08:30;157129.50;;;17.65;29.82
5350;BME280;2697;42.144;24.794;2023-02-17T11:13:39;157170.59;;;17.81;30.00
5350;BME280;2697;42.144;24.794;2023-02-17T11:16:42;157186.50;;;17.87;29.57
5350;BME280;2697;42.144;24.794;2023-02-17T11:19:16;157201.03;;;17.92;29.11
5350;BME280;2697;42.144;24.794;2023-02-17T11:21:46;157187.84;;;17.87;28.85
5350;BME280;2697;42.144;24.794;2023-02-17T11:24:11;157203.69;;;17.93;29.12
5350;BME280;2697;42.144;24.794;2023-02-17T11:26:37;157231.47;;;18.04;29.33
5350;BME280;2697;42.144;24.794;2023-02-17T11:29:16;157256.66;;;18.14;29.27
5350;BME280;2697;42.144;24.794;2023-02-17T11:31:59;157275.19;;;18.21;28.93
5350;BME280;2697;42.144;24.794;2023-02-17T11:34:28;157271.22;;;18.19;28.76
5350;BME280;2697;42.144;24.794;2023-02-17T11:39:26;157344.09;;;18.47;29.23
5350;BME280;2697;42.144;24.794;2023-02-17T11:41:52;157365.28;;;18.56;27.12
5350;BME280;2697;42.144;24.794;2023-02-17T11:44:26;157395.78;;;18.67;27.13
5350;BME280;2697;42.144;24.794;2023-02-17T11:55:19;157397.13;;;18.68;24.86
5350;BME280;2697;42.144;24.794;2023-02-17T12:00:21;157409.06;;;18.72;23.99
5350;BME280;2697;42.144;24.794;2023-02-17T12:08:22;157410.38;;;18.73;24.93
5350;BME280;2697;42.144;24.794;2023-02-17T12:16:54;157434.25;;;18.82;25.19
5350;BME280;2697;42.144;24.794;2023-02-17T12:22:19;157427.56;;;18.79;25.33
5350;BME280;2697;42.144;24.794;2023-02-17T12:33:24;157418.31;;;18.76;24.91
5350;BME280;2697;42.144;24.794;2023-02-17T12:36:05;157415.69;;;18.75;24.55
5350;BME280;2697;42.144;24.794;2023-02-17T12:38:35;157409.06;;;18.72;23.36
5350;BME280;2697;42.144;24.794;2023-02-17T12:41:19;157418.31;;;18.76;23.62
5350;BME280;2697;42.144;24.794;2023-02-17T12:43:53;157450.09;;;18.88;23.40
5350;BME280;2697;42.144;24.794;2023-02-17T12:46:25;157471.31;;;18.96;22.94
5350;BME280;2697;42.144;24.794;2023-02-17T12:49:05;157418.31;;;18.76;23.01
5350;BME280;2697;42.144;24.794;2023-02-17T12:51:51;157435.56;;;18.83;23.70
5350;BME280;2697;42.144;24.794;2023-02-17T12:54:22;157436.88;;;18.83;24.07
5350;BME280;2697;42.144;24.794;2023-02-17T13:01:55;157483.25;;;19.01;24.67
5350;BME280;2697;42.144;24.794;2023-02-17T13:04:24;157501.81;;;19.08;24.26
5350;BME280;2697;42.144;24.794;2023-02-17T13:06:54;157509.75;;;19.11;23.77
5350;BME280;2697;42.144;24.794;2023-02-17T13:09:28;157513.72;;;19.13;22.77
5350;BME280;2697;42.144;24.794;2023-02-17T13:17:32;157434.25;;;18.82;22.96
5350;BME280;2697;42.144;24.794;2023-02-17T13:22:46;157446.13;;;18.87;23.47
5350;BME280;2697;42.144;24.794;2023-02-17T13:25:25;157458.09;;;18.91;24.08
5350;BME280;2697;42.144;24.794;2023-02-17T13:27:50;157458.09;;;18.91;24.08
5350;BME280;2697;42.144;24.794;2023-02-17T13:32:41;157442.16;;;18.85;24.44
5350;BME280;2697;42.144;24.794;2023-02-17T13:35:32;157443.50;;;18.86;24.65
5350;BME280;2697;42.144;24.794;2023-02-17T13:37:57;157436.88;;;18.83;24.46
5350;BME280;2697;42.144;24.794;2023-02-17T13:42:53;157418.31;;;18.76;25.20
5350;BME280;2697;42.144;24.794;2023-02-17T13:47:56;157418.31;;;18.76;25.48
5350;BME280;2697;42.144;24.794;2023-02-17T13:50:30;157410.38;;;18.73;25.20
5350;BME280;2697;42.144;24.794;2023-02-17T13:52:56;157410.38;;;18.73;25.31
5350;BME280;2697;42.144;24.794;2023-02-17T13:55:22;157410.38;;;18.73;25.41
5350;BME280;2697;42.144;24.794;2023-02-17T13:57:52;157410.38;;;18.73;25.34
5350;BME280;2697;42.144;24.794;2023-02-17T14:02:54;157398.44;;;18.68;25.61
5350;BME280;2697;42.144;24.794;2023-02-17T14:05:43;157411.72;;;18.73;25.10
5350;BME280;2697;42.144;24.794;2023-02-17T14:10:50;157452.81;;;18.89;25.50
5350;BME280;2697;42.144;24.794;2023-02-17T14:13:16;157414.34;;;18.74;26.36
5350;BME280;2697;42.144;24.794;2023-02-17T14:15:57;157402.41;;;18.70;26.87
5350;BME280;2697;42.144;24.794;2023-02-17T14:18:33;157405.09;;;18.71;27.09
5350;BME280;2697;42.144;24.794;2023-02-17T14:21:07;157377.19;;;18.60;27.36
5350;BME280;2697;42.144;24.794;2023-02-17T14:23:40;157366.59;;;18.56;26.96
5350;BME280;2697;42.144;24.794;2023-02-17T14:26:12;157360.00;;;18.54;27.31
5350;BME280;2697;42.144;24.794;2023-02-17T14:28:37;157370.56;;;18.58;27.33
5350;BME280;2697;42.144;24.794;2023-02-17T14:31:08;157357.34;;;18.52;27.47
5350;BME280;2697;42.144;24.794;2023-02-17T14:33:34;157365.28;;;18.56;27.62
5350;BME280;2697;42.144;24.794;2023-02-17T14:36:02;157349.38;;;18.49;27.61
5350;BME280;2697;42.144;24.794;2023-02-17T14:38:31;157373.22;;;18.59;27.48
5350;BME280;2697;42.144;24.794;2023-02-17T14:40:57;157366.59;;;18.56;27.23
5350;BME280;2697;42.144;24.794;2023-02-17T14:43:24;157352.00;;;18.50;26.62
5350;BME280;2697;42.144;24.794;2023-02-17T14:45:50;157362.63;;;18.55;27.56
5350;BME280;2697;42.144;24.794;2023-02-17T14:48:16;157362.63;;;18.55;27.21
5350;BME280;2697;42.144;24.794;2023-02-17T14:50:42;157330.81;;;18.42;27.57
5350;BME280;2697;42.144;24.794;2023-02-17T14:53:24;157303.00;;;18.32;27.62
5350;BME280;2697;42.144;24.794;2023-02-17T14:58:24;157232.81;;;18.05;27.87
5350;BME280;2697;42.144;24.794;2023-02-17T15:00:50;157208.97;;;17.95;27.88
5350;BME280;2697;42.144;24.794;2023-02-17T15:03:16;157185.13;;;17.86;28.08
5350;BME280;2697;42.144;24.794;2023-02-17T15:05:42;157152.06;;;17.74;28.20